sensor_id;sensor_type;location;lat;lon;timestamp;pressure;altitude;pressure_sealevel;temperature;humidity
64628;BME280;68467;50.960;0.314;2023-04-24T00:01:52;98831.50;;;5.55;100.00
64628;BME280;68467;50.960;0.314;2023-04-24T00:04:19;98835.23;;;5.54;100.00
64628;BME280;68467;50.960;0.314;2023-04-24T00:06:46;98840.51;;;5.51;100.00
64628;BME280;68467;50.960;0.314;2023-04-24T00:09:14;98842.04;;;4.92;100.00
64628;BME280;68467;50.960;0.314;2023-04-24T00:11:41;98844.38;;;5.03;100.00
64628;BME280;68467;50.960;0.314;2023-04-24T00:14:08;98852.86;;;4.71;100.00
64628;BME280;68467;50.960;0.314;2023-04-24T00:16:35;98859.42;;;4.83;100.00
64628;BME280;68467;50.960;0.314;2023-04-24T00:19:02;98867.00;;;5.24;100.00
64628;BME280;68467;50.960;0.314;2023-04-24T00:21:29;98872.18;;;4.98;100.00
64628;BME280;68467;50.960;0.314;2023-04-24T00:23:57;98882.52;;;5.25;100.00
64628;BME280;68467;50.960;0.314;2023-04-24T00:26:24;98886.40;;;5.37;100.00
64628;BME280;68467;50.960;0.314;2023-04-24T00:28:52;98886.21;;;5.27;100.00
64628;BME280;68467;50.960;0.314;2023-04-24T00:31:19;98885.25;;;4.95;100.00
64628;BME280;68467;50.960;0.314;2023-04-24T00:33:46;98882.31;;;5.43;100.00
64628;BME280;68467;50.960;0.314;2023-04-24T00:36:14;98881.66;;;5.40;100.00
64628;BME280;68467;50.960;0.314;2023-04-24T00:38:41;98877.88;;;5.27;100.00
64628;BME280;68467;50.960;0.314;2023-04-24T00:41:09;98875.28;;;5.24;100.00
64628;BME280;68467;50.960;0.314;2023-04-24T00:43:36;98874.72;;;5.36;100.00
64628;BME280;68467;50.960;0.314;2023-04-24T00:46:04;98864.78;;;5.17;100.00
64628;BME280;68467;50.960;0.314;2023-04-24T00:48:31;98874.32;;;4.90;100.00
64628;BME280;68467;50.960;0.314;2023-04-24T00:50:59;98878.41;;;5.19;100.00
64628;BME280;68467;50.960;0.314;2023-04-24T00:53:27;98876.20;;;4.98;100.00
64628;BME280;68467;50.960;0.314;2023-04-24T00:55:54;98878.79;;;5.45;100.00
64628;BME280;68467;50.960;0.314;2023-04-24T00:58:22;98883.43;;;5.35;100.00
64628;BME280;68467;50.960;0.314;2023-04-24T01:00:50;98884.66;;;5.17;100.00
64628;BME280;68467;50.960;0.314;2023-04-24T01:03:19;98887.04;;;5.07;100.00
64628;BME280;68467;50.960;0.314;2023-04-24T01:05:47;98885.70;;;5.19;100.00
64628;BME280;68467;50.960;0.314;2023-04-24T01:08:16;98885.12;;;5.22;100.00
64628;BME280;68467;50.960;0.314;2023-04-24T01:10:44;98891.04;;;5.35;100.00
64628;BME280;68467;50.960;0.314;2023-04-24T01:13:13;98898.88;;;5.24;100.00
64628;BME280;68467;50.960;0.314;2023-04-24T01:15:40;98900.01;;;5.06;100.00
64628;BME280;68467;50.960;0.314;2023-04-24T01:18:07;98903.82;;;5.46;100.00
64628;BME280;68467;50.960;0.314;2023-04-24T01:20:35;98907.97;;;5.70;100.00
64628;BME280;68467;50.960;0.314;2023-04-24T01:23:04;98912.49;;;5.67;100.00
64628;BME280;68467;50.960;0.314;2023-04-24T01:25:31;98914.01;;;5.25;100.00
64628;BME280;68467;50.960;0.314;2023-04-24T01:28:00;98915.60;;;5.34;100.00
64628;BME280;68467;50.960;0.314;2023-04-24T01:30:28;98916.51;;;5.33;100.00
64628;BME280;68467;50.960;0.314;2023-04-24T01:32:55;98920.66;;;5.24;100.00
64628;BME280;68467;50.960;0.314;2023-04-24T01:35:23;98925.73;;;5.16;100.00
64628;BME280;68467;50.960;0.314;2023-04-24T01:37:50;98930.43;;;5.70;100.00
64628;BME280;68467;50.960;0.314;2023-04-24T01:40:18;98929.43;;;5.60;100.00
64628;BME280;68467;50.960;0.314;2023-04-24T01:42:45;98928.53;;;5.46;100.00
64628;BME280;68467;50.960;0.314;2023-04-24T01:45:13;98926.07;;;4.90;100.00
64628;BME280;68467;50.960;0.314;2023-04-24T01:47:41;98932.22;;;4.56;100.00
64628;BME280;68467;50.960;0.314;2023-04-24T01:50:09;98935.11;;;4.88;100.00
64628;BME280;68467;50.960;0.314;2023-04-24T01:52:36;98944.50;;;5.12;100.00
64628;BME280;68467;50.960;0.314;2023-04-24T01:55:05;98948.61;;;5.53;100.00
64628;BME280;68467;50.960;0.314;2023-04-24T01:57:33;98947.00;;;5.41;100.00
64628;BME280;68467;50.960;0.314;2023-04-24T02:00:01;98945.23;;;5.54;100.00
64628;BME280;68467;50.960;0.314;2023-04-24T02:02:29;98943.51;;;5.91;100.00
64628;BME280;68467;50.960;0.314;2023-04-24T02:04:56;98948.51;;;5.61;100.00
64628;BME280;68467;50.960;0.314;2023-04-24T02:07:24;98946.08;;;6.34;100.00
64628;BME280;68467;50.960;0.314;2023-04-24T02:09:51;98948.77;;;6.55;100.00
64628;BME280;68467;50.960;0.314;2023-04-24T02:12:18;98950.25;;;6.06;100.00
64628;BME280;68467;50.960;0.314;2023-04-24T02:14:45;98944.03;;;5.79;100.00
64628;BME280;68467;50.960;0.314;2023-04-24T02:17:17;98937.82;;;6.73;100.00
64628;BME280;68467;50.960;0.314;2023-04-24T02:19:45;98942.28;;;6.41;100.00
64628;BME280;68467;50.960;0.314;2023-04-24T02:22:12;98944.11;;;6.65;100.00
64628;BME280;68467;50.960;0.314;2023-04-24T02:24:39;98943.31;;;5.99;100.00
64628;BME280;68467;50.960;0.314;2023-04-24T02:27:07;98940.18;;;6.78;100.00
64628;BME280;68467;50.960;0.314;2023-04-24T02:29:34;98942.77;;;7.06;100.00
64628;BME280;68467;50.960;0.314;2023-04-24T02:32:01;98945.42;;;6.31;100.00
64628;BME280;68467;50.960;0.314;2023-04-24T02:34:28;98952.35;;;6.21;100.00
64628;BME280;68467;50.960;0.314;2023-04-24T02:36:55;98953.93;;;6.27;100.00
64628;BME280;68467;50.960;0.314;2023-04-24T02:39:22;98950.26;;;5.91;100.00
64628;BME280;68467;50.960;0.314;2023-04-24T02:41:49;98951.26;;;6.79;100.00
64628;BME280;68467;50.960;0.314;2023-04-24T02:44:17;98954.85;;;6.69;100.00
64628;BME280;68467;50.960;0.314;2023-04-24T02:46:44;98955.98;;;6.47;100.00
64628;BME280;68467;50.960;0.314;2023-04-24T02:49:12;98958.01;;;6.34;100.00
64628;BME280;68467;50.960;0.314;2023-04-24T02:51:39;98963.11;;;5.92;100.00
64628;BME280;68467;50.960;0.314;2023-04-24T02:54:07;98968.98;;;5.80;100.00
64628;BME280;68467;50.960;0.314;2023-04-24T02:56:34;98969.01;;;6.83;100.00
64628;BME280;68467;50.960;0.314;2023-04-24T02:59:02;98968.81;;;7.06;100.00
64628;BME280;68467;50.960;0.314;2023-04-24T03:01:29;98976.46;;;7.39;100.00
64628;BME280;68467;50.960;0.314;2023-04-24T03:03:56;98979.60;;;6.96;100.00
64628;BME280;68467;50.960;0.314;2023-04-24T03:06:23;98980.45;;;7.11;100.00
64628;BME280;68467;50.960;0.314;2023-04-24T03:08:51;98984.14;;;6.01;100.00
64628;BME280;68467;50.960;0.314;2023-04-24T03:11:18;98988.35;;;5.81;100.00
64628;BME280;68467;50.960;0.314;2023-04-24T03:13:45;98984.31;;;6.71;100.00
64628;BME280;68467;50.960;0.314;2023-04-24T03:16:12;98985.34;;;7.41;100.00
64628;BME280;68467;50.960;0.314;2023-04-24T03:18:40;98991.66;;;6.50;100.00
64628;BME280;68467;50.960;0.314;2023-04-24T03:21:07;98999.04;;;5.48;100.00
64628;BME280;68467;50.960;0.314;2023-04-24T03:23:34;98989.30;;;7.14;100.00
64628;BME280;68467;50.960;0.314;2023-04-24T03:26:01;98998.21;;;6.83;100.00
64628;BME280;68467;50.960;0.314;2023-04-24T03:28:29;99003.96;;;6.05;100.00
64628;BME280;68467;50.960;0.314;2023-04-24T03:30:56;98993.38;;;6.22;100.00
64628;BME280;68467;50.960;0.314;2023-04-24T03:33:23;99003.51;;;4.50;100.00
64628;BME280;68467;50.960;0.314;2023-04-24T03:35:51;99004.13;;;5.20;100.00
64628;BME280;68467;50.960;0.314;2023-04-24T03:38:17;99007.90;;;5.56;100.00
64628;BME280;68467;50.960;0.314;2023-04-24T03:40:44;99016.50;;;5.20;100.00
64628;BME280;68467;50.960;0.314;2023-04-24T03:43:12;99019.55;;;5.28;100.00
64628;BME280;68467;50.960;0.314;2023-04-24T03:45:39;99023.92;;;5.02;100.00
64628;BME280;68467;50.960;0.314;2023-04-24T03:48:06;99031.88;;;5.54;100.00
64628;BME280;68467;50.960;0.314;2023-04-24T03:50:33;99035.27;;;5.47;100.00
64628;BME280;68467;50.960;0.314;2023-04-24T03:53:01;99038.01;;;5.68;100.00
64628;BME280;68467;50.960;0.314;2023-04-24T03:55:28;99030.06;;;5.85;100.00
64628;BME280;68467;50.960;0.314;2023-04-24T03:58:00;99033.01;;;6.05;100.00
64628;BME280;68467;50.960;0.314;2023-04-24T04:00:27;99041.45;;;5.42;100.00
64628;BME280;68467;50.960;0.314;2023-04-24T04:02:55;99048.30;;;5.26;100.00
64628;BME280;68467;50.960;0.314;2023-04-24T04:05:22;99048.56;;;4.87;100.00
64628;BME280;68467;50.960;0.314;2023-04-24T04:07:49;99057.52;;;5.47;100.00
64628;BME280;68467;50.960;0.314;2023-04-24T04:10:17;99063.24;;;4.75;100.00
64628;BME280;68467;50.960;0.314;2023-04-24T04:12:44;99068.22;;;4.17;100.00
64628;BME280;68467;50.960;0.314;2023-04-24T04:15:12;99063.08;;;4.67;100.00
64628;BME280;68467;50.960;0.314;2023-04-24T04:17:39;99063.50;;;4.73;100.00
64628;BME280;68467;50.960;0.314;2023-04-24T04:20:07;99071.21;;;4.13;100.00
64628;BME280;68467;50.960;0.314;2023-04-24T04:22:34;99075.05;;;4.50;100.00
64628;BME280;68467;50.960;0.314;2023-04-24T04:25:01;99083.40;;;4.53;100.00
64628;BME280;68467;50.960;0.314;2023-04-24T04:27:29;99084.45;;;4.33;100.00
64628;BME280;68467;50.960;0.314;2023-04-24T04:29:55;99080.29;;;5.05;100.00
64628;BME280;68467;50.960;0.314;2023-04-24T04:32:22;99079.00;;;5.05;100.00
64628;BME280;68467;50.960;0.314;2023-04-24T04:34:50;99088.23;;;4.63;100.00
64628;BME280;68467;50.960;0.314;2023-04-24T04:37:17;99094.34;;;5.13;100.00
64628;BME280;68467;50.960;0.314;2023-04-24T04:39:44;99100.58;;;4.67;100.00
64628;BME280;68467;50.960;0.314;2023-04-24T04:42:11;99102.62;;;4.63;100.00
64628;BME280;68467;50.960;0.314;2023-04-24T04:44:38;99107.40;;;4.87;100.00
64628;BME280;68467;50.960;0.314;2023-04-24T04:47:05;99108.49;;;4.74;100.00
64628;BME280;68467;50.960;0.314;2023-04-24T04:49:32;99115.39;;;4.27;100.00
64628;BME280;68467;50.960;0.314;2023-04-24T04:52:00;99114.21;;;4.96;100.00
64628;BME280;68467;50.960;0.314;2023-04-24T04:54:27;99113.55;;;4.86;100.00
64628;BME280;68467;50.960;0.314;2023-04-24T04:56:54;99112.03;;;4.90;100.00
64628;BME280;68467;50.960;0.314;2023-04-24T04:59:21;99111.46;;;5.25;100.00
64628;BME280;68467;50.960;0.314;2023-04-24T05:01:48;99113.31;;;5.36;100.00
64628;BME280;68467;50.960;0.314;2023-04-24T05:04:15;99119.48;;;4.23;100.00
64628;BME280;68467;50.960;0.314;2023-04-24T05:06:43;99119.26;;;4.73;100.00
64628;BME280;68467;50.960;0.314;2023-04-24T05:09:10;99119.93;;;4.41;100.00
64628;BME280;68467;50.960;0.314;2023-04-24T05:11:37;99123.20;;;4.65;100.00
64628;BME280;68467;50.960;0.314;2023-04-24T05:14:04;99130.97;;;4.57;100.00
64628;BME280;68467;50.960;0.314;2023-04-24T05:16:32;99133.89;;;4.91;100.00
64628;BME280;68467;50.960;0.314;2023-04-24T05:18:59;99135.99;;;4.30;100.00
64628;BME280;68467;50.960;0.314;2023-04-24T05:21:26;99139.38;;;3.46;100.00
64628;BME280;68467;50.960;0.314;2023-04-24T05:23:54;99138.54;;;4.01;100.00
64628;BME280;68467;50.960;0.314;2023-04-24T05:26:22;99142.91;;;3.82;100.00
64628;BME280;68467;50.960;0.314;2023-04-24T05:28:49;99148.76;;;3.92;100.00
64628;BME280;68467;50.960;0.314;2023-04-24T05:31:16;99155.47;;;4.07;100.00
64628;BME280;68467;50.960;0.314;2023-04-24T05:33:44;99157.33;;;5.31;100.00
64628;BME280;68467;50.960;0.314;2023-04-24T05:36:12;99154.93;;;4.76;100.00
64628;BME280;68467;50.960;0.314;2023-04-24T05:38:39;99155.74;;;4.90;100.00
64628;BME280;68467;50.960;0.314;2023-04-24T05:41:06;99156.01;;;5.14;100.00
64628;BME280;68467;50.960;0.314;2023-04-24T05:43:34;99161.40;;;4.88;100.00
64628;BME280;68467;50.960;0.314;2023-04-24T05:46:01;99167.15;;;4.44;100.00
64628;BME280;68467;50.960;0.314;2023-04-24T05:48:28;99169.85;;;4.40;100.00
64628;BME280;68467;50.960;0.314;2023-04-24T05:50:56;99171.59;;;4.03;100.00
64628;BME280;68467;50.960;0.314;2023-04-24T05:53:24;99178.20;;;4.91;100.00
64628;BME280;68467;50.960;0.314;2023-04-24T05:55:52;99183.18;;;5.17;100.00
64628;BME280;68467;50.960;0.314;2023-04-24T05:58:20;99183.86;;;5.45;100.00
64628;BME280;68467;50.960;0.314;2023-04-24T06:00:47;99185.29;;;5.53;100.00
64628;BME280;68467;50.960;0.314;2023-04-24T06:03:15;99183.47;;;5.90;100.00
64628;BME280;68467;50.960;0.314;2023-04-24T06:05:42;99188.54;;;5.75;100.00
64628;BME280;68467;50.960;0.314;2023-04-24T06:08:10;99186.83;;;5.09;100.00
64628;BME280;68467;50.960;0.314;2023-04-24T06:10:37;99184.82;;;5.90;100.00
64628;BME280;68467;50.960;0.314;2023-04-24T06:13:04;99190.36;;;5.57;100.00
64628;BME280;68467;50.960;0.314;2023-04-24T06:15:31;99186.55;;;5.86;100.00
64628;BME280;68467;50.960;0.314;2023-04-24T06:17:58;99192.40;;;6.29;100.00
64628;BME280;68467;50.960;0.314;2023-04-24T06:20:25;99188.23;;;6.17;100.00
64628;BME280;68467;50.960;0.314;2023-04-24T06:22:53;99186.25;;;6.88;100.00
64628;BME280;68467;50.960;0.314;2023-04-24T06:25:21;99187.84;;;6.73;100.00
64628;BME280;68467;50.960;0.314;2023-04-24T06:27:48;99189.39;;;6.80;100.00
64628;BME280;68467;50.960;0.314;2023-04-24T06:30:16;99189.25;;;6.39;100.00
64628;BME280;68467;50.960;0.314;2023-04-24T06:32:43;99191.41;;;6.88;100.00
64628;BME280;68467;50.960;0.314;2023-04-24T06:35:10;99200.66;;;6.88;100.00
64628;BME280;68467;50.960;0.314;2023-04-24T06:37:39;99200.71;;;6.54;100.00
64628;BME280;68467;50.960;0.314;2023-04-24T06:40:07;99205.86;;;6.87;100.00
64628;BME280;68467;50.960;0.314;2023-04-24T06:42:36;99204.55;;;6.68;100.00
64628;BME280;68467;50.960;0.314;2023-04-24T06:45:03;99204.68;;;6.72;100.00
64628;BME280;68467;50.960;0.314;2023-04-24T06:47:31;99209.44;;;6.65;100.00
64628;BME280;68467;50.960;0.314;2023-04-24T06:49:59;99206.15;;;5.74;100.00
64628;BME280;68467;50.960;0.314;2023-04-24T06:52:26;99208.48;;;5.60;100.00
64628;BME280;68467;50.960;0.314;2023-04-24T06:55:00;99203.08;;;7.08;100.00
64628;BME280;68467;50.960;0.314;2023-04-24T06:57:26;99203.81;;;7.52;100.00
64628;BME280;68467;50.960;0.314;2023-04-24T06:59:54;99207.92;;;6.95;100.00
64628;BME280;68467;50.960;0.314;2023-04-24T07:02:22;99208.69;;;6.92;100.00
64628;BME280;68467;50.960;0.314;2023-04-24T07:04:49;99209.98;;;6.96;100.00
64628;BME280;68467;50.960;0.314;2023-04-24T07:07:17;99212.62;;;6.98;100.00
64628;BME280;68467;50.960;0.314;2023-04-24T07:09:44;99210.81;;;6.75;100.00
64628;BME280;68467;50.960;0.314;2023-04-24T07:12:11;99213.97;;;6.28;100.00
64628;BME280;68467;50.960;0.314;2023-04-24T07:14:39;99214.24;;;6.19;100.00
64628;BME280;68467;50.960;0.314;2023-04-24T07:17:07;99214.28;;;6.96;100.00
64628;BME280;68467;50.960;0.314;2023-04-24T07:19:35;99211.30;;;7.50;100.00
64628;BME280;68467;50.960;0.314;2023-04-24T07:22:02;99207.28;;;7.99;100.00
64628;BME280;68467;50.960;0.314;2023-04-24T07:24:29;99203.88;;;8.34;100.00
64628;BME280;68467;50.960;0.314;2023-04-24T07:26:56;99209.02;;;8.39;100.00
64628;BME280;68467;50.960;0.314;2023-04-24T07:29:24;99212.80;;;7.82;100.00
64628;BME280;68467;50.960;0.314;2023-04-24T07:31:52;99213.99;;;8.17;100.00
64628;BME280;68467;50.960;0.314;2023-04-24T07:34:18;99214.42;;;7.71;100.00
64628;BME280;68467;50.960;0.314;2023-04-24T07:36:46;99212.62;;;8.37;100.00
64628;BME280;68467;50.960;0.314;2023-04-24T07:39:14;99216.87;;;7.66;100.00
64628;BME280;68467;50.960;0.314;2023-04-24T07:41:41;99217.75;;;8.35;100.00
64628;BME280;68467;50.960;0.314;2023-04-24T07:44:08;99221.96;;;7.90;100.00
64628;BME280;68467;50.960;0.314;2023-04-24T07:46:35;99227.52;;;7.38;100.00
64628;BME280;68467;50.960;0.314;2023-04-24T07:49:02;99235.66;;;7.27;100.00
64628;BME280;68467;50.960;0.314;2023-04-24T07:51:31;99231.87;;;7.98;100.00
64628;BME280;68467;50.960;0.314;2023-04-24T07:53:58;99231.41;;;8.60;100.00
64628;BME280;68467;50.960;0.314;2023-04-24T07:56:25;99233.48;;;8.29;100.00
64628;BME280;68467;50.960;0.314;2023-04-24T07:58:52;99235.79;;;8.78;100.00
64628;BME280;68467;50.960;0.314;2023-04-24T08:01:20;99238.91;;;8.61;100.00
64628;BME280;68467;50.960;0.314;2023-04-24T08:03:47;99237.00;;;8.19;100.00
64628;BME280;68467;50.960;0.314;2023-04-24T08:06:15;99236.89;;;9.46;100.00
64628;BME280;68467;50.960;0.314;2023-04-24T08:08:41;99241.43;;;9.66;100.00
64628;BME280;68467;50.960;0.314;2023-04-24T08:11:09;99245.39;;;8.28;100.00
64628;BME280;68467;50.960;0.314;2023-04-24T08:13:37;99245.66;;;9.66;100.00
64628;BME280;68467;50.960;0.314;2023-04-24T08:16:04;99251.88;;;8.44;100.00
64628;BME280;68467;50.960;0.314;2023-04-24T08:18:31;99252.91;;;8.81;100.00
64628;BME280;68467;50.960;0.314;2023-04-24T08:20:58;99255.61;;;8.53;100.00
64628;BME280;68467;50.960;0.314;2023-04-24T08:23:26;99259.46;;;8.23;100.00
64628;BME280;68467;50.960;0.314;2023-04-24T08:25:53;99257.50;;;7.87;100.00
64628;BME280;68467;50.960;0.314;2023-04-24T08:28:21;99253.92;;;8.15;100.00
64628;BME280;68467;50.960;0.314;2023-04-24T08:30:48;99254.33;;;8.65;100.00
64628;BME280;68467;50.960;0.314;2023-04-24T08:33:15;99253.28;;;9.67;100.00
64628;BME280;68467;50.960;0.314;2023-04-24T08:35:42;99254.30;;;8.13;100.00
64628;BME280;68467;50.960;0.314;2023-04-24T08:38:09;99253.90;;;8.93;100.00
64628;BME280;68467;50.960;0.314;2023-04-24T08:40:37;99252.99;;;9.59;100.00
64628;BME280;68467;50.960;0.314;2023-04-24T08:43:04;99253.66;;;9.64;100.00
64628;BME280;68467;50.960;0.314;2023-04-24T08:45:33;99254.37;;;9.32;100.00
64628;BME280;68467;50.960;0.314;2023-04-24T08:48:00;99257.89;;;8.77;100.00
64628;BME280;68467;50.960;0.314;2023-04-24T08:50:29;99255.57;;;9.20;100.00
64628;BME280;68467;50.960;0.314;2023-04-24T08:52:57;99257.65;;;9.76;100.00
64628;BME280;68467;50.960;0.314;2023-04-24T08:55:25;99262.16;;;8.52;100.00
64628;BME280;68467;50.960;0.314;2023-04-24T08:57:53;99262.87;;;9.33;100.00
64628;BME280;68467;50.960;0.314;2023-04-24T09:00:21;99268.98;;;8.65;100.00
64628;BME280;68467;50.960;0.314;2023-04-24T09:02:49;99267.99;;;8.79;100.00
64628;BME280;68467;50.960;0.314;2023-04-24T09:05:17;99271.43;;;8.68;100.00
64628;BME280;68467;50.960;0.314;2023-04-24T09:07:48;99273.20;;;8.09;100.00
64628;BME280;68467;50.960;0.314;2023-04-24T09:10:16;99272.32;;;7.46;100.00
64628;BME280;68467;50.960;0.314;2023-04-24T09:12:44;99269.53;;;9.00;100.00
64628;BME280;68467;50.960;0.314;2023-04-24T09:15:11;99271.35;;;8.47;100.00
64628;BME280;68467;50.960;0.314;2023-04-24T09:17:38;99266.58;;;9.24;100.00
64628;BME280;68467;50.960;0.314;2023-04-24T09:20:07;99269.00;;;8.15;100.00
64628;BME280;68467;50.960;0.314;2023-04-24T09:22:35;99270.46;;;8.66;100.00
64628;BME280;68467;50.960;0.314;2023-04-24T09:25:04;99270.17;;;9.07;100.00
64628;BME280;68467;50.960;0.314;2023-04-24T09:27:32;99269.12;;;9.91;100.00
64628;BME280;68467;50.960;0.314;2023-04-24T09:30:02;99275.44;;;9.07;100.00
64628;BME280;68467;50.960;0.314;2023-04-24T09:32:29;99279.15;;;8.61;100.00
64628;BME280;68467;50.960;0.314;2023-04-24T09:35:07;99281.41;;;8.66;100.00
64628;BME280;68467;50.960;0.314;2023-04-24T09:37:36;99276.09;;;9.15;100.00
64628;BME280;68467;50.960;0.314;2023-04-24T09:40:13;99280.27;;;10.18;100.00
64628;BME280;68467;50.960;0.314;2023-04-24T09:42:43;99274.09;;;10.95;100.00
64628;BME280;68467;50.960;0.314;2023-04-24T09:45:11;99277.38;;;10.54;100.00
64628;BME280;68467;50.960;0.314;2023-04-24T09:47:40;99281.48;;;10.52;100.00
64628;BME280;68467;50.960;0.314;2023-04-24T09:50:13;99287.54;;;9.72;100.00
64628;BME280;68467;50.960;0.314;2023-04-24T09:52:43;99288.34;;;9.51;100.00
64628;BME280;68467;50.960;0.314;2023-04-24T09:55:15;99286.88;;;10.45;100.00
64628;BME280;68467;50.960;0.314;2023-04-24T09:57:51;99288.03;;;10.09;100.00
64628;BME280;68467;50.960;0.314;2023-04-24T10:00:23;99289.85;;;10.06;100.00
64628;BME280;68467;50.960;0.314;2023-04-24T10:02:51;99293.12;;;9.25;100.00
64628;BME280;68467;50.960;0.314;2023-04-24T10:05:24;99302.98;;;8.97;100.00
64628;BME280;68467;50.960;0.314;2023-04-24T10:07:52;99304.66;;;10.00;100.00
64628;BME280;68467;50.960;0.314;2023-04-24T10:10:23;99302.26;;;10.11;100.00
64628;BME280;68467;50.960;0.314;2023-04-24T10:12:51;99301.27;;;11.44;100.00
64628;BME280;68467;50.960;0.314;2023-04-24T10:15:19;99304.09;;;10.03;100.00
64628;BME280;68467;50.960;0.314;2023-04-24T10:17:48;99309.06;;;10.23;100.00
64628;BME280;68467;50.960;0.314;2023-04-24T10:20:16;99306.50;;;10.44;100.00
64628;BME280;68467;50.960;0.314;2023-04-24T10:22:43;99302.49;;;10.12;100.00
64628;BME280;68467;50.960;0.314;2023-04-24T10:25:12;99302.37;;;11.37;100.00
64628;BME280;68467;50.960;0.314;2023-04-24T10:27:40;99303.54;;;10.31;100.00
64628;BME280;68467;50.960;0.314;2023-04-24T10:30:09;99305.65;;;12.04;100.00
64628;BME280;68467;50.960;0.314;2023-04-24T10:32:38;99303.85;;;12.10;100.00
64628;BME280;68467;50.960;0.314;2023-04-24T10:35:13;99305.87;;;12.24;100.00
64628;BME280;68467;50.960;0.314;2023-04-24T10:37:43;99308.06;;;12.52;100.00
64628;BME280;68467;50.960;0.314;2023-04-24T10:40:11;99312.70;;;11.11;100.00
64628;BME280;68467;50.960;0.314;2023-04-24T10:42:40;99308.79;;;11.32;100.00
64628;BME280;68467;50.960;0.314;2023-04-24T10:45:16;99308.65;;;10.57;100.00
64628;BME280;68467;50.960;0.314;2023-04-24T10:47:52;99313.68;;;9.50;100.00
64628;BME280;68467;50.960;0.314;2023-04-24T10:50:19;99313.62;;;9.86;100.00
64628;BME280;68467;50.960;0.314;2023-04-24T10:52:47;99313.76;;;9.70;100.00
64628;BME280;68467;50.960;0.314;2023-04-24T10:55:14;99310.35;;;10.71;100.00
64628;BME280;68467;50.960;0.314;2023-04-24T10:58:02;99313.69;;;10.63;100.00
64628;BME280;68467;50.960;0.314;2023-04-24T11:00:30;99316.81;;;10.29;100.00
64628;BME280;68467;50.960;0.314;2023-04-24T11:02:57;99314.79;;;10.16;100.00
64628;BME280;68467;50.960;0.314;2023-04-24T11:05:51;99319.06;;;10.23;100.00
64628;BME280;68467;50.960;0.314;2023-04-24T11:08:25;99318.76;;;10.02;100.00
64628;BME280;68467;50.960;0.314;2023-04-24T11:10:58;99327.30;;;9.40;100.00
64628;BME280;68467;50.960;0.314;2023-04-24T11:13:28;99331.57;;;8.78;100.00
64628;BME280;68467;50.960;0.314;2023-04-24T11:16:28;99326.22;;;9.65;100.00
64628;BME280;68467;50.960;0.314;2023-04-24T11:19:02;99325.24;;;8.96;100.00
64628;BME280;68467;50.960;0.314;2023-04-24T11:21:40;99327.40;;;9.08;100.00
64628;BME280;68467;50.960;0.314;2023-04-24T11:24:48;99329.19;;;9.23;100.00
64628;BME280;68467;50.960;0.314;2023-04-24T11:27:18;99331.06;;;9.71;100.00
64628;BME280;68467;50.960;0.314;2023-04-24T11:29:49;99334.36;;;10.18;100.00
64628;BME280;68467;50.960;0.314;2023-04-24T11:32:18;99333.93;;;9.70;100.00
64628;BME280;68467;50.960;0.314;2023-04-24T11:34:48;99338.68;;;9.56;100.00
64628;BME280;68467;50.960;0.314;2023-04-24T11:37:16;99341.93;;;9.32;100.00
64628;BME280;68467;50.960;0.314;2023-04-24T11:39:43;99350.89;;;8.02;100.00
64628;BME280;68467;50.960;0.314;2023-04-24T11:42:14;99361.80;;;6.97;100.00
64628;BME280;68467;50.960;0.314;2023-04-24T11:44:43;99368.73;;;6.89;100.00
64628;BME280;68467;50.960;0.314;2023-04-24T11:47:10;99371.45;;;6.48;100.00
64628;BME280;68467;50.960;0.314;2023-04-24T11:49:38;99369.03;;;7.20;100.00
64628;BME280;68467;50.960;0.314;2023-04-24T11:52:05;99370.26;;;8.16;100.00
64628;BME280;68467;50.960;0.314;2023-04-24T11:54:33;99367.94;;;7.75;100.00
64628;BME280;68467;50.960;0.314;2023-04-24T11:57:04;99364.30;;;7.10;100.00
64628;BME280;68467;50.960;0.314;2023-04-24T11:59:36;99362.34;;;7.02;100.00
64628;BME280;68467;50.960;0.314;2023-04-24T12:02:03;99357.66;;;7.62;100.00
64628;BME280;68467;50.960;0.314;2023-04-24T12:04:39;99358.60;;;8.08;100.00
64628;BME280;68467;50.960;0.314;2023-04-24T12:07:07;99357.23;;;6.85;100.00
64628;BME280;68467;50.960;0.314;2023-04-24T12:09:43;99356.84;;;7.23;100.00
64628;BME280;68467;50.960;0.314;2023-04-24T12:12:11;99348.15;;;8.77;100.00
64628;BME280;68467;50.960;0.314;2023-04-24T12:14:56;99341.37;;;9.57;100.00
64628;BME280;68467;50.960;0.314;2023-04-24T12:17:25;99344.99;;;9.27;100.00
64628;BME280;68467;50.960;0.314;2023-04-24T12:19:57;99340.53;;;9.74;100.00
64628;BME280;68467;50.960;0.314;2023-04-24T12:22:25;99346.04;;;9.64;100.00
64628;BME280;68467;50.960;0.314;2023-04-24T12:25:00;99345.96;;;9.77;100.00
64628;BME280;68467;50.960;0.314;2023-04-24T12:27:31;99345.36;;;10.40;100.00
64628;BME280;68467;50.960;0.314;2023-04-24T12:29:59;99345.58;;;9.68;100.00
64628;BME280;68467;50.960;0.314;2023-04-24T12:32:27;99345.85;;;9.68;100.00
64628;BME280;68467;50.960;0.314;2023-04-24T12:34:55;99342.90;;;9.57;100.00
64628;BME280;68467;50.960;0.314;2023-04-24T12:37:24;99340.67;;;9.66;100.00
64628;BME280;68467;50.960;0.314;2023-04-24T12:40:09;99337.13;;;9.84;100.00
64628;BME280;68467;50.960;0.314;2023-04-24T12:42:43;99336.55;;;9.57;100.00
64628;BME280;68467;50.960;0.314;2023-04-24T12:45:11;99338.50;;;10.15;100.00
64628;BME280;68467;50.960;0.314;2023-04-24T12:47:39;99325.74;;;10.41;100.00
64628;BME280;68467;50.960;0.314;2023-04-24T12:50:08;99323.07;;;10.16;100.00
64628;BME280;68467;50.960;0.314;2023-04-24T12:52:35;99322.12;;;10.34;100.00
64628;BME280;68467;50.960;0.314;2023-04-24T12:55:03;99325.45;;;10.64;100.00
64628;BME280;68467;50.960;0.314;2023-04-24T12:57:30;99320.71;;;11.05;100.00
64628;BME280;68467;50.960;0.314;2023-04-24T12:59:59;99321.60;;;10.07;100.00
64628;BME280;68467;50.960;0.314;2023-04-24T13:02:27;99327.15;;;9.20;100.00
64628;BME280;68467;50.960;0.314;2023-04-24T13:04:55;99323.45;;;9.43;100.00
64628;BME280;68467;50.960;0.314;2023-04-24T13:07:22;99324.87;;;9.31;100.00